createdAt,value
2019-04-25T00:02:01.850Z,18.56
2019-04-25T00:04:31.521Z,18.45
2019-04-25T00:07:00.135Z,18.20
2019-04-25T00:09:31.795Z,18.04
2019-04-25T00:12:02.151Z,18.04
2019-04-25T00:14:31.442Z,17.99
2019-04-25T00:17:01.727Z,17.81
2019-04-25T00:19:31.602Z,17.80
2019-04-25T00:22:05.464Z,17.84
2019-04-25T00:24:44.950Z,17.74
2019-04-25T00:27:13.760Z,17.72
2019-04-25T00:29:43.949Z,17.57
2019-04-25T00:32:12.559Z,17.46
2019-04-25T00:34:44.255Z,17.41
2019-04-25T00:37:12.255Z,17.28
2019-04-25T00:39:44.784Z,17.07
2019-04-25T00:42:12.197Z,16.98
2019-04-25T00:44:43.501Z,16.98
2019-04-25T00:47:11.751Z,16.99
2019-04-25T00:49:42.107Z,17.03
2019-04-25T00:52:11.622Z,17.12
2019-04-25T00:54:41.450Z,17.24
2019-04-25T00:57:12.073Z,17.28
2019-04-25T00:59:49.718Z,17.21
2019-04-25T01:02:31.410Z,17.23
2019-04-25T01:05:01.678Z,17.04
2019-04-25T01:07:34.069Z,16.87
2019-04-25T01:10:02.467Z,16.51
2019-04-25T01:12:31.396Z,16.29
2019-04-25T01:15:01.553Z,16.30
2019-04-25T01:17:31.464Z,16.31
2019-04-25T01:20:00.095Z,16.35
2019-04-25T01:22:28.567Z,16.25
2019-04-25T01:24:57.293Z,16.02
2019-04-25T01:27:25.748Z,15.90
2019-04-25T01:29:55.293Z,15.84
2019-04-25T01:32:30.675Z,15.86
2019-04-25T01:35:09.357Z,15.89
2019-04-25T01:38:06.201Z,15.87
2019-04-25T01:40:45.807Z,15.90
2019-04-25T01:43:38.033Z,15.96
2019-04-25T01:46:06.513Z,16.02
2019-04-25T01:48:35.142Z,16.09
2019-04-25T01:51:04.096Z,16.07
2019-04-25T01:53:33.859Z,16.06
2019-04-25T01:56:07.464Z,16.04
2019-04-25T01:58:33.771Z,15.96
2019-04-25T02:01:03.157Z,15.95
2019-04-25T02:03:34.250Z,15.95
2019-04-25T02:06:04.777Z,15.89
2019-04-25T02:08:34.075Z,15.67
2019-04-25T02:11:20.486Z,15.46
2019-04-25T02:13:49.075Z,15.42
2019-04-25T02:16:17.720Z,15.37
2019-04-25T02:18:46.218Z,15.10
2019-04-25T02:21:14.668Z,14.98
2019-04-25T02:23:44.178Z,15.02
2019-04-25T02:26:18.219Z,14.81
2019-04-25T02:28:43.743Z,14.84
2019-04-25T02:31:17.597Z,14.75
2019-04-25T02:33:44.305Z,14.73
2019-04-25T02:36:15.053Z,14.62
2019-04-25T02:38:44.191Z,14.76
2019-04-25T02:41:14.702Z,14.76
2019-04-25T02:43:45.058Z,14.74
2019-04-25T02:46:31.022Z,14.79
2019-04-25T02:49:31.709Z,14.71
2019-04-25T02:52:03.555Z,14.71
2019-04-25T02:54:31.834Z,14.65
2019-04-25T02:57:00.497Z,14.55
2019-04-25T02:59:29.473Z,14.50
2019-04-25T03:01:59.159Z,14.36
2019-04-25T03:04:27.687Z,14.36
2019-04-25T03:06:58.417Z,14.30
2019-04-25T03:09:26.628Z,14.40
2019-04-25T03:11:55.169Z,14.50
2019-04-25T03:14:26.367Z,14.55
2019-04-25T03:16:54.412Z,14.56
2019-04-25T03:19:34.221Z,14.49
2019-04-25T03:22:08.388Z,14.48
2019-04-25T03:24:35.169Z,14.50
2019-04-25T03:27:05.220Z,14.46
2019-04-25T03:29:34.255Z,14.43
2019-04-25T03:32:08.796Z,14.38
2019-04-25T03:34:35.166Z,14.43
2019-04-25T03:37:05.320Z,14.45
2019-04-25T03:39:34.312Z,14.44
2019-04-25T03:42:04.281Z,14.35
2019-04-25T03:44:33.801Z,14.35
2019-04-25T03:47:05.258Z,14.43
2019-04-25T03:49:33.668Z,14.39
2019-04-25T03:52:02.867Z,14.40
2019-04-25T03:54:33.410Z,14.37
2019-04-25T03:57:02.348Z,14.35
2019-04-25T03:59:33.595Z,14.31
2019-04-25T04:02:03.062Z,14.27
2019-04-25T04:04:33.520Z,14.26
2019-04-25T04:07:04.418Z,14.28
2019-04-25T04:09:33.823Z,14.28
2019-04-25T04:12:04.298Z,14.34
2019-04-25T04:14:33.842Z,14.31
2019-04-25T04:17:14.440Z,14.31
2019-04-25T04:19:50.170Z,14.23
2019-04-25T04:22:27.967Z,14.27
2019-04-25T04:24:58.141Z,14.27
2019-04-25T04:27:26.727Z,14.13
2019-04-25T04:29:55.477Z,14.13
2019-04-25T04:32:24.296Z,14.19
2019-04-25T04:34:53.680Z,14.20
2019-04-25T04:37:23.653Z,14.16
2019-04-25T04:39:53.646Z,14.13
2019-04-25T04:42:23.698Z,14.11
2019-04-25T04:44:53.421Z,14.02
2019-04-25T04:47:23.564Z,13.97
2019-04-25T04:49:54.015Z,13.95
2019-04-25T04:52:25.489Z,14.03
2019-04-25T04:55:03.702Z,14.04
2019-04-25T04:57:32.561Z,14.05
2019-04-25T04:59:53.693Z,14.12
2019-04-25T05:02:39.584Z,14.17
2019-04-25T05:05:25.403Z,14.22
2019-04-25T05:07:59.555Z,14.25
2019-04-25T05:10:28.020Z,14.30
2019-04-25T05:12:56.523Z,14.24
2019-04-25T05:15:25.221Z,13.68
2019-04-25T05:17:54.273Z,14.44
2019-04-25T05:20:24.179Z,14.42
2019-04-25T05:22:53.319Z,14.50
2019-04-25T05:25:24.597Z,14.55
2019-04-25T05:28:00.796Z,14.58
2019-04-25T05:30:29.717Z,14.65
2019-04-25T05:32:58.314Z,14.71
2019-04-25T05:35:26.970Z,14.70
2019-04-25T05:37:55.443Z,14.70
2019-04-25T05:40:24.494Z,14.71
2019-04-25T05:43:03.318Z,14.71
2019-04-25T05:45:33.866Z,14.74
2019-04-25T05:48:05.683Z,14.73
2019-04-25T05:50:33.852Z,14.74
2019-04-25T05:53:04.164Z,14.73
2019-04-25T05:55:34.140Z,14.77
2019-04-25T05:58:03.845Z,14.83
2019-04-25T06:00:34.134Z,14.80
2019-04-25T06:03:03.618Z,14.80
2019-04-25T06:05:33.510Z,14.82
2019-04-25T06:08:04.140Z,14.87
2019-04-25T06:10:54.602Z,14.90
2019-04-25T06:13:39.668Z,14.96
2019-04-25T06:16:13.412Z,14.97
2019-04-25T06:18:51.323Z,14.90
2019-04-25T06:21:20.032Z,14.94
2019-04-25T06:24:16.857Z,14.96
2019-04-25T06:27:11.412Z,14.97
2019-04-25T06:29:39.909Z,14.99
2019-04-25T06:32:08.710Z,15.05
2019-04-25T06:34:37.366Z,15.10
2019-04-25T06:37:06.253Z,15.08
2019-04-25T06:39:34.909Z,15.12
2019-04-25T06:42:04.018Z,15.18
2019-04-25T06:44:43.890Z,15.22
2019-04-25T06:47:38.716Z,15.26
2019-04-25T06:50:07.479Z,15.28
2019-04-25T06:52:36.224Z,15.25
2019-04-25T06:55:05.318Z,15.32
2019-04-25T06:57:34.194Z,15.36
2019-04-25T07:00:04.340Z,15.39
2019-04-25T07:02:33.579Z,15.46
2019-04-25T07:05:03.996Z,15.49
2019-04-25T07:07:34.880Z,15.54
2019-04-25T07:10:03.602Z,15.59
2019-04-25T07:12:34.447Z,15.58
2019-04-25T07:15:03.874Z,15.64
2019-04-25T07:17:34.326Z,15.64
2019-04-25T07:20:03.900Z,15.68
2019-04-25T07:22:34.776Z,15.69
2019-04-25T07:25:03.619Z,15.77
2019-04-25T07:27:44.762Z,15.80
2019-04-25T07:30:46.843Z,15.81
2019-04-25T07:33:15.384Z,15.80
2019-04-25T07:35:43.835Z,15.86
2019-04-25T07:38:13.958Z,15.86
2019-04-25T07:40:43.369Z,15.87
2019-04-25T07:43:13.403Z,15.96
2019-04-25T07:45:43.465Z,16.07
2019-04-25T07:48:13.853Z,16.14
2019-04-25T07:50:43.863Z,16.12
2019-04-25T07:53:14.268Z,16.12
2019-04-25T07:55:43.318Z,16.14
2019-04-25T07:58:11.816Z,16.16
2019-04-25T08:00:40.281Z,16.20
2019-04-25T08:03:08.773Z,16.23
2019-04-25T08:05:37.891Z,16.23
2019-04-25T08:08:06.632Z,16.25
2019-04-25T08:10:56.068Z,16.33
2019-04-25T08:13:26.330Z,16.39
2019-04-25T08:15:55.815Z,16.45
2019-04-25T08:18:25.420Z,16.52
2019-04-25T08:20:54.161Z,16.58
2019-04-25T08:23:23.819Z,16.64
2019-04-25T08:25:52.320Z,16.72
2019-04-25T08:28:20.796Z,16.79
2019-04-25T08:30:49.500Z,16.78
2019-04-25T08:33:17.950Z,16.78
2019-04-25T08:36:03.646Z,16.80
2019-04-25T08:38:16.640Z,16.86
2019-04-25T08:40:45.330Z,16.86
2019-04-25T08:43:14.672Z,16.95
2019-04-25T08:45:44.261Z,17.01
2019-04-25T08:48:13.588Z,17.10
2019-04-25T08:51:01.666Z,17.19
2019-04-25T08:53:36.593Z,17.22
2019-04-25T08:56:11.535Z,17.25
2019-04-25T08:58:45.981Z,17.32
2019-04-25T09:01:34.210Z,17.34
2019-04-25T09:04:13.323Z,17.36
2019-04-25T09:06:42.296Z,17.41
2019-04-25T09:09:10.723Z,17.43
2019-04-25T09:11:40.126Z,17.36
2019-04-25T09:14:08.613Z,17.41
2019-04-25T09:16:37.888Z,17.49
2019-04-25T09:19:06.419Z,17.56
2019-04-25T09:21:36.593Z,17.57
2019-04-25T09:24:05.310Z,17.59
2019-04-25T09:26:36.088Z,17.64
2019-04-25T09:29:16.333Z,17.72
2019-04-25T09:31:37.536Z,17.77
2019-04-25T09:34:05.226Z,17.81
2019-04-25T09:36:33.747Z,17.84
2019-04-25T09:39:08.122Z,17.84
2019-04-25T09:41:36.663Z,17.85
2019-04-25T09:44:06.796Z,17.95
2019-04-25T09:46:37.219Z,17.99
2019-04-25T09:49:14.185Z,18.07
2019-04-25T09:51:47.028Z,18.06
2019-04-25T09:54:46.829Z,18.11
2019-04-25T09:57:53.249Z,18.16
2019-04-25T10:00:38.996Z,18.22
2019-04-25T10:03:07.475Z,17.77
2019-04-25T10:05:36.996Z,18.48
2019-04-25T10:08:05.593Z,18.55
2019-04-25T10:10:34.168Z,18.54
2019-04-25T10:13:04.211Z,18.60
2019-04-25T10:15:54.695Z,18.65
2019-04-25T10:18:23.413Z,18.67
2019-04-25T10:20:51.982Z,18.70
2019-04-25T10:23:20.453Z,18.75
2019-04-25T10:25:49.189Z,18.24
2019-04-25T10:28:17.794Z,18.95
2019-04-25T10:30:46.923Z,19.01
2019-04-25T10:33:15.411Z,19.04
2019-04-25T10:35:50.680Z,19.06
2019-04-25T10:38:14.389Z,19.13
2019-04-25T10:40:45.148Z,19.16
2019-04-25T10:43:14.485Z,19.21
2019-04-25T10:45:44.779Z,19.36
2019-04-25T10:48:13.669Z,19.42
2019-04-25T10:50:42.254Z,19.50
2019-04-25T10:53:10.726Z,19.55
2019-04-25T10:55:39.167Z,19.61
2019-04-25T10:58:07.834Z,19.65
2019-04-25T11:00:38.284Z,19.72
2019-04-25T11:03:18.080Z,19.72
2019-04-25T11:05:47.585Z,19.72
2019-04-25T11:08:16.926Z,19.82
2019-04-25T11:10:47.502Z,19.96
2019-04-25T11:13:15.986Z,20.03
2019-04-25T11:15:44.917Z,20.08
2019-04-25T11:18:15.218Z,20.12
2019-04-25T11:20:44.689Z,20.16
2019-04-25T11:23:13.974Z,20.20
2019-04-25T11:25:43.548Z,20.20
2019-04-25T11:28:14.413Z,20.25
2019-04-25T11:30:45.180Z,20.33
2019-04-25T11:33:14.297Z,20.41
2019-04-25T11:35:43.939Z,20.52
2019-04-25T11:38:15.307Z,20.64
2019-04-25T11:40:51.272Z,20.70
2019-04-25T11:43:19.474Z,20.73
2019-04-25T11:45:47.942Z,20.73
2019-04-25T11:48:16.425Z,20.84
2019-04-25T11:50:48.986Z,20.89
2019-04-25T11:53:15.109Z,20.98
2019-04-25T11:55:43.640Z,21.06
2019-04-25T11:58:14.153Z,21.15
2019-04-25T12:00:43.496Z,21.30
2019-04-25T12:03:12.938Z,21.43
2019-04-25T12:05:42.954Z,21.51
2019-04-25T12:08:11.593Z,21.60
2019-04-25T12:10:42.874Z,21.65
2019-04-25T12:13:13.346Z,21.73
2019-04-25T12:15:43.396Z,21.82
2019-04-25T12:18:13.707Z,21.91
2019-04-25T12:20:42.239Z,21.86
2019-04-25T12:23:10.757Z,21.87
2019-04-25T12:25:39.414Z,21.83
2019-04-25T12:28:07.889Z,21.79
2019-04-25T12:30:40.074Z,21.73
2019-04-25T12:33:18.416Z,21.75
2019-04-25T12:35:36.806Z,21.77
2019-04-25T12:38:05.366Z,21.84
2019-04-25T12:40:34.342Z,22.03
2019-04-25T12:43:03.154Z,22.05
2019-04-25T12:46:01.136Z,22.15
2019-04-25T12:48:29.781Z,22.11
2019-04-25T12:50:58.249Z,22.16
2019-04-25T12:53:26.702Z,22.34
2019-04-25T12:55:56.142Z,22.38
2019-04-25T12:58:24.633Z,22.41
2019-04-25T13:00:57.176Z,22.52
2019-04-25T13:03:24.167Z,22.47
2019-04-25T13:05:52.708Z,22.63
2019-04-25T13:08:21.186Z,22.85
2019-04-25T13:10:49.834Z,22.97
2019-04-25T13:13:18.290Z,23.10
2019-04-25T13:15:46.757Z,23.26
2019-04-25T13:18:15.239Z,23.39
2019-04-25T13:20:43.706Z,23.49
2019-04-25T13:23:14.352Z,23.58
2019-04-25T13:25:44.155Z,23.70
2019-04-25T13:28:37.808Z,23.82
2019-04-25T13:31:24.208Z,23.79
2019-04-25T13:34:01.813Z,23.74
2019-04-25T13:36:45.030Z,23.87
2019-04-25T13:39:18.628Z,24.13
2019-04-25T13:41:47.086Z,24.22
2019-04-25T13:44:15.570Z,24.27
2019-04-25T13:46:44.023Z,24.45
2019-04-25T13:49:14.108Z,24.60
2019-04-25T13:51:42.661Z,24.71
2019-04-25T13:54:11.123Z,24.76
2019-04-25T13:56:40.690Z,24.82
2019-04-25T13:59:09.517Z,24.81
2019-04-25T14:01:38.475Z,24.99
2019-04-25T14:04:08.042Z,25.05
2019-04-25T14:06:36.497Z,25.15
2019-04-25T14:09:07.739Z,25.10
2019-04-25T14:11:36.200Z,25.15
2019-04-25T14:14:04.654Z,25.28
2019-04-25T14:16:50.569Z,25.43
2019-04-25T14:19:36.968Z,25.63
2019-04-25T14:22:05.927Z,25.81
2019-04-25T14:24:35.812Z,25.93
2019-04-25T14:27:04.524Z,26.01
2019-04-25T14:29:33.035Z,26.09
2019-04-25T14:32:03.229Z,26.06
2019-04-25T14:34:32.278Z,25.95
2019-04-25T14:37:01.892Z,25.94
2019-04-25T14:39:30.441Z,25.92
2019-04-25T14:41:59.059Z,25.66
2019-04-25T14:44:28.625Z,25.73
2019-04-25T14:46:57.353Z,25.82
2019-04-25T14:49:26.288Z,25.87
2019-04-25T14:51:54.772Z,25.87
2019-04-25T14:54:29.145Z,25.96
2019-04-25T14:57:05.438Z,26.08
2019-04-25T14:59:34.155Z,26.24
2019-04-25T15:02:02.674Z,26.33
2019-04-25T15:04:31.170Z,26.39
2019-04-25T15:06:59.650Z,26.62
2019-04-25T15:09:28.835Z,26.71
2019-04-25T15:11:57.349Z,26.70
2019-04-25T15:14:26.929Z,26.67
2019-04-25T15:16:55.523Z,26.86
2019-04-25T15:19:24.249Z,27.09
2019-04-25T15:21:52.895Z,27.18
2019-04-25T15:24:21.366Z,27.31
2019-04-25T15:26:50.169Z,27.43
2019-04-25T15:29:18.640Z,27.44
2019-04-25T15:31:55.762Z,27.52
2019-04-25T15:34:17.680Z,27.57
2019-04-25T15:36:51.916Z,27.56
2019-04-25T15:39:42.182Z,27.60
2019-04-25T15:42:35.319Z,27.57
2019-04-25T15:45:20.097Z,27.53
2019-04-25T15:47:48.628Z,27.51
2019-04-25T15:50:17.337Z,27.45
2019-04-25T15:52:46.168Z,27.46
2019-04-25T15:55:14.864Z,27.38
2019-04-25T15:57:43.378Z,27.34
2019-04-25T16:00:18.132Z,27.36
2019-04-25T16:02:46.599Z,27.42
2019-04-25T16:05:15.101Z,27.38
2019-04-25T16:07:44.001Z,27.39
2019-04-25T16:10:13.167Z,27.36
2019-04-25T16:12:41.657Z,27.24
2019-04-25T16:15:10.121Z,27.21
2019-04-25T16:17:38.672Z,27.20
2019-04-25T16:20:07.209Z,27.13
2019-04-25T16:22:36.623Z,27.11
2019-04-25T16:25:05.504Z,27.17
2019-04-25T16:27:33.998Z,27.22
2019-04-25T16:30:02.586Z,27.23
2019-04-25T16:32:31.345Z,27.19
2019-04-25T16:35:00.153Z,27.09
2019-04-25T16:37:29.147Z,27.04
2019-04-25T16:39:57.759Z,27.00
2019-04-25T16:42:26.202Z,26.97
2019-04-25T16:44:54.681Z,27.03
2019-04-25T16:47:24.796Z,27.01
2019-04-25T16:49:53.458Z,26.99
2019-04-25T16:52:22.407Z,27.02
2019-04-25T16:54:51.117Z,26.93
2019-04-25T16:57:19.683Z,26.62
2019-04-25T16:59:48.314Z,26.29
2019-04-25T17:02:17.042Z,26.08
2019-04-25T17:04:45.516Z,25.82
2019-04-25T17:07:14.582Z,25.73
2019-04-25T17:09:43.340Z,25.76
2019-04-25T17:12:13.429Z,25.81
2019-04-25T17:14:55.924Z,25.81
2019-04-25T17:17:33.745Z,25.73
2019-04-25T17:20:11.691Z,25.51
2019-04-25T17:22:40.322Z,25.14
2019-04-25T17:25:08.958Z,24.87
2019-04-25T17:27:37.820Z,24.68
2019-04-25T17:30:06.398Z,24.53
2019-04-25T17:32:52.860Z,24.42
2019-04-25T17:35:32.216Z,24.30
2019-04-25T17:38:11.528Z,24.27
2019-04-25T17:40:40.002Z,24.22
2019-04-25T17:43:11.342Z,24.12
2019-04-25T17:45:39.191Z,24.02
2019-04-25T17:48:07.674Z,23.93
2019-04-25T17:50:36.165Z,23.86
2019-04-25T17:53:04.644Z,23.79
2019-04-25T17:55:33.330Z,23.71
2019-04-25T17:58:01.964Z,23.64
2019-04-25T18:00:41.999Z,23.56
2019-04-25T18:03:11.465Z,23.52
2019-04-25T18:05:40.026Z,23.43
2019-04-25T18:08:08.960Z,23.33
2019-04-25T18:10:37.796Z,23.27
2019-04-25T18:13:09.323Z,23.23
2019-04-25T18:15:43.864Z,23.15
2019-04-25T18:18:20.424Z,23.10
2019-04-25T18:20:49.139Z,23.01
2019-04-25T18:23:37.082Z,22.93
2019-04-25T18:26:30.790Z,22.87
2019-04-25T18:29:05.829Z,22.77
2019-04-25T18:31:35.525Z,22.64
2019-04-25T18:34:06.791Z,22.59
2019-04-25T18:36:41.616Z,22.54
2019-04-25T18:39:21.212Z,22.48
2019-04-25T18:42:10.050Z,22.45
2019-04-25T18:44:38.533Z,22.36
2019-04-25T18:47:07.320Z,22.28
2019-04-25T18:49:36.359Z,22.22
2019-04-25T18:52:09.355Z,22.15
2019-04-25T18:54:50.557Z,22.11
2019-04-25T18:57:31.545Z,22.08
2019-04-25T19:00:16.173Z,22.00
2019-04-25T19:02:54.282Z,21.91
2019-04-25T19:05:39.831Z,21.90
2019-04-25T19:08:09.167Z,21.86
2019-04-25T19:10:39.446Z,21.79
2019-04-25T19:13:12.855Z,21.68
2019-04-25T19:15:38.830Z,21.64
2019-04-25T19:18:08.213Z,21.62
2019-04-25T19:20:36.878Z,21.55
2019-04-25T19:23:05.682Z,21.51
2019-04-25T19:25:34.165Z,21.47
2019-04-25T19:28:02.931Z,21.43
2019-04-25T19:30:31.626Z,21.38
2019-04-25T19:33:00.108Z,21.33
2019-04-25T19:35:28.843Z,21.30
2019-04-25T19:37:58.728Z,21.27
2019-04-25T19:40:55.345Z,21.23
2019-04-25T19:43:28.058Z,21.18
2019-04-25T19:45:56.687Z,21.13
2019-04-25T19:48:25.427Z,21.07
2019-04-25T19:50:54.039Z,21.00
2019-04-25T19:53:22.480Z,20.97
2019-04-25T19:55:51.792Z,20.99
2019-04-25T19:58:20.566Z,21.00
2019-04-25T20:00:50.919Z,20.95
2019-04-25T20:03:49.444Z,20.93
2019-04-25T20:06:17.223Z,20.87
2019-04-25T20:08:56.743Z,20.86
2019-04-25T20:11:40.876Z,20.85
2019-04-25T20:14:09.316Z,20.80
2019-04-25T20:16:44.886Z,20.75
2019-04-25T20:19:13.769Z,20.72
2019-04-25T20:21:42.225Z,20.69
2019-04-25T20:24:10.677Z,20.68
2019-04-25T20:26:39.128Z,20.66
2019-04-25T20:29:07.770Z,20.66
2019-04-25T20:31:36.223Z,20.65
2019-04-25T20:34:06.241Z,20.64
2019-04-25T20:36:34.824Z,20.61
2019-04-25T20:39:03.565Z,20.59
2019-04-25T20:41:32.022Z,20.58
2019-04-25T20:44:00.466Z,20.55
2019-04-25T20:46:29.332Z,20.53
2019-04-25T20:48:57.770Z,20.50
2019-04-25T20:51:26.270Z,20.57
2019-04-25T20:53:54.940Z,20.61
2019-04-25T20:56:23.404Z,20.58
2019-04-25T20:58:51.866Z,20.64
2019-04-25T21:01:20.324Z,20.69
2019-04-25T21:03:49.818Z,20.64
2019-04-25T21:06:38.599Z,20.55
2019-04-25T21:09:07.321Z,20.56
2019-04-25T21:11:35.816Z,20.52
2019-04-25T21:14:22.573Z,20.58
2019-04-25T21:16:58.589Z,20.51
2019-04-25T21:19:29.697Z,20.44
2019-04-25T21:21:58.765Z,20.43
2019-04-25T21:24:27.194Z,20.38
2019-04-25T21:26:57.072Z,20.37
2019-04-25T21:29:25.865Z,20.42
2019-04-25T21:31:54.692Z,19.84
2019-04-25T21:34:26.784Z,20.40
2019-04-25T21:36:53.502Z,20.38
2019-04-25T21:39:28.439Z,20.37
2019-04-25T21:42:03.213Z,20.35
2019-04-25T21:44:31.944Z,20.39
2019-04-25T21:47:00.646Z,20.34
2019-04-25T21:49:29.423Z,20.28
2019-04-25T21:51:58.902Z,20.24
2019-04-25T21:54:27.591Z,20.19
2019-04-25T21:56:57.425Z,20.14
2019-04-25T21:59:26.236Z,20.14
2019-04-25T22:01:55.417Z,20.11
2019-04-25T22:04:24.722Z,20.05
2019-04-25T22:06:54.159Z,20.02
2019-04-25T22:09:23.242Z,19.98
2019-04-25T22:11:52.016Z,19.96
2019-04-25T22:14:20.770Z,19.95
2019-04-25T22:16:49.995Z,19.94
2019-04-25T22:19:18.929Z,19.89
2019-04-25T22:21:47.681Z,19.90
2019-04-25T22:24:16.597Z,19.87
2019-04-25T22:26:46.910Z,19.87
2019-04-25T22:29:15.519Z,19.89
2019-04-25T22:31:51.532Z,19.29
2019-04-25T22:34:29.047Z,19.87
2019-04-25T22:37:00.556Z,19.85
2019-04-25T22:39:29.034Z,19.82
2019-04-25T22:41:57.713Z,19.80
2019-04-25T22:44:26.480Z,19.82
2019-04-25T22:46:55.497Z,19.80
2019-04-25T22:49:23.937Z,19.82
2019-04-25T22:51:52.652Z,19.21
2019-04-25T22:54:22.666Z,19.85
2019-04-25T22:56:51.256Z,19.86
2019-04-25T22:59:19.908Z,19.87
2019-04-25T23:02:00.806Z,19.85
2019-04-25T23:05:05.446Z,19.85
2019-04-25T23:07:27.942Z,19.85
2019-04-25T23:09:56.822Z,19.83
2019-04-25T23:12:25.637Z,19.84
2019-04-25T23:14:54.106Z,19.82
2019-04-25T23:17:22.787Z,19.80
2019-04-25T23:19:51.536Z,19.79
2019-04-25T23:22:20.006Z,19.77
2019-04-25T23:25:00.328Z,19.77
2019-04-25T23:27:46.662Z,19.76
2019-04-25T23:30:17.441Z,19.72
2019-04-25T23:32:45.996Z,19.71
2019-04-25T23:35:27.993Z,19.70
2019-04-25T23:37:44.692Z,19.69
2019-04-25T23:40:13.724Z,19.71
2019-04-25T23:42:42.563Z,19.70
2019-04-25T23:45:11.020Z,19.67
2019-04-25T23:47:39.571Z,19.66
2019-04-25T23:50:08.663Z,19.63
2019-04-25T23:52:37.139Z,19.62
2019-04-25T23:55:06.769Z,19.63
2019-04-25T23:57:36.035Z,19.64
